sensor_id;sensor_type;location;lat;lon;timestamp;pressure;altitude;pressure_sealevel;temperature;humidity
5595;BME280;1003;48.002;7.788;2023-02-10T00:01:04;101419.75;;;-4.28;100.00
5595;BME280;1003;48.002;7.788;2023-02-10T00:03:32;101423.28;;;-4.34;100.00
5595;BME280;1003;48.002;7.788;2023-02-10T00:06:00;101426.19;;;-4.38;100.00
5595;BME280;1003;48.002;7.788;2023-02-10T00:08:29;101427.38;;;-4.43;100.00
5595;BME280;1003;48.002;7.788;2023-02-10T00:10:58;101428.00;;;-4.46;100.00
5595;BME280;1003;48.002;7.788;2023-02-10T00:13:25;101440.44;;;-4.34;100.00
5595;BME280;1003;48.002;7.788;2023-02-10T00:15:53;101438.91;;;-4.42;100.00
5595;BME280;1003;48.002;7.788;2023-02-10T00:18:20;101444.44;;;-4.45;100.00
5595;BME280;1003;48.002;7.788;2023-02-10T00:20:47;101439.25;;;-4.48;100.00
5595;BME280;1003;48.002;7.788;2023-02-10T00:23:14;101430.06;;;-4.51;100.00
5595;BME280;1003;48.002;7.788;2023-02-10T00:25:43;101451.03;;;-4.25;100.00
5595;BME280;1003;48.002;7.788;2023-02-10T00:28:10;101452.69;;;-4.15;100.00
5595;BME280;1003;48.002;7.788;2023-02-10T00:30:38;101460.28;;;-3.93;100.00
5595;BME280;1003;48.002;7.788;2023-02-10T00:33:05;101434.47;;;-3.99;100.00
5595;BME280;1003;48.002;7.788;2023-02-10T00:35:33;101466.09;;;-3.83;100.00
5595;BME280;1003;48.002;7.788;2023-02-10T00:38:00;101459.06;;;-3.88;100.00
5595;BME280;1003;48.002;7.788;2023-02-10T00:40:27;101458.13;;;-3.80;100.00
5595;BME280;1003;48.002;7.788;2023-02-10T00:42:56;101470.13;;;-3.54;100.00
5595;BME280;1003;48.002;7.788;2023-02-10T00:45:23;101467.75;;;-3.63;100.00
5595;BME280;1003;48.002;7.788;2023-02-10T00:47:50;101472.69;;;-3.63;100.00
5595;BME280;1003;48.002;7.788;2023-02-10T00:50:17;101483.13;;;-3.55;100.00
5595;BME280;1003;48.002;7.788;2023-02-10T00:52:44;101467.44;;;-3.47;100.00
5595;BME280;1003;48.002;7.788;2023-02-10T00:55:11;101485.06;;;-3.22;100.00
5595;BME280;1003;48.002;7.788;2023-02-10T00:57:38;101479.28;;;-3.12;100.00
5595;BME280;1003;48.002;7.788;2023-02-10T01:00:08;101479.06;;;-3.05;100.00
5595;BME280;1003;48.002;7.788;2023-02-10T01:02:36;101477.00;;;-3.01;100.00
5595;BME280;1003;48.002;7.788;2023-02-10T01:05:03;101480.06;;;-2.93;100.00
5595;BME280;1003;48.002;7.788;2023-02-10T01:07:30;101477.47;;;-2.95;100.00
5595;BME280;1003;48.002;7.788;2023-02-10T01:09:57;101487.31;;;-2.95;100.00
5595;BME280;1003;48.002;7.788;2023-02-10T01:12:24;101484.38;;;-2.91;100.00
5595;BME280;1003;48.002;7.788;2023-02-10T01:14:51;101488.03;;;-2.85;100.00
5595;BME280;1003;48.002;7.788;2023-02-10T01:17:20;101481.66;;;-2.83;100.00
5595;BME280;1003;48.002;7.788;2023-02-10T01:19:47;101472.31;;;-2.77;100.00
5595;BME280;1003;48.002;7.788;2023-02-10T01:22:16;101481.41;;;-2.66;100.00
5595;BME280;1003;48.002;7.788;2023-02-10T01:24:44;101476.22;;;-2.69;100.00
5595;BME280;1003;48.002;7.788;2023-02-10T01:27:11;101481.88;;;-2.60;100.00
5595;BME280;1003;48.002;7.788;2023-02-10T01:29:38;101481.88;;;-2.60;100.00
5595;BME280;1003;48.002;7.788;2023-02-10T01:32:05;101482.38;;;-2.54;100.00
5595;BME280;1003;48.002;7.788;2023-02-10T01:34:35;101473.41;;;-2.63;100.00
5595;BME280;1003;48.002;7.788;2023-02-10T01:37:03;101461.81;;;-2.65;100.00
5595;BME280;1003;48.002;7.788;2023-02-10T01:39:30;101469.19;;;-2.54;100.00
5595;BME280;1003;48.002;7.788;2023-02-10T01:41:57;101462.09;;;-2.72;100.00
5595;BME280;1003;48.002;7.788;2023-02-10T01:45:12;101460.75;;;-2.68;100.00
5595;BME280;1003;48.002;7.788;2023-02-10T01:48:00;101443.91;;;-2.94;100.00
5595;BME280;1003;48.002;7.788;2023-02-10T01:50:34;101449.41;;;-3.07;100.00
5595;BME280;1003;48.002;7.788;2023-02-10T01:53:05;101426.53;;;-3.36;100.00
5595;BME280;1003;48.002;7.788;2023-02-10T01:55:34;101440.81;;;-3.22;100.00
5595;BME280;1003;48.002;7.788;2023-02-10T01:58:06;101437.97;;;-3.27;100.00
5595;BME280;1003;48.002;7.788;2023-02-10T02:00:36;101425.16;;;-3.53;100.00
5595;BME280;1003;48.002;7.788;2023-02-10T02:03:05;101425.75;;;-3.56;100.00
5595;BME280;1003;48.002;7.788;2023-02-10T02:05:36;101418.97;;;-3.68;100.00
5595;BME280;1003;48.002;7.788;2023-02-10T02:08:09;101418.72;;;-3.61;100.00
5595;BME280;1003;48.002;7.788;2023-02-10T02:11:07;101434.84;;;-3.45;100.00
5595;BME280;1003;48.002;7.788;2023-02-10T02:14:10;101442.59;;;-3.50;100.00
5595;BME280;1003;48.002;7.788;2023-02-10T02:16:54;101448.63;;;-3.47;100.00
5595;BME280;1003;48.002;7.788;2023-02-10T02:20:08;101448.25;;;-3.51;100.00
5595;BME280;1003;48.002;7.788;2023-02-10T02:23:19;101447.34;;;-3.62;100.00
5595;BME280;1003;48.002;7.788;2023-02-10T02:29:38;101420.28;;;-4.11;100.00
5595;BME280;1003;48.002;7.788;2023-02-10T02:32:18;101416.03;;;-4.33;100.00
5595;BME280;1003;48.002;7.788;2023-02-10T02:34:51;101414.78;;;-4.38;100.00
5595;BME280;1003;48.002;7.788;2023-02-10T02:37:27;101410.13;;;-4.54;100.00
5595;BME280;1003;48.002;7.788;2023-02-10T02:39:55;101401.75;;;-4.66;100.00
5595;BME280;1003;48.002;7.788;2023-02-10T02:42:25;101405.31;;;-4.81;100.00
5595;BME280;1003;48.002;7.788;2023-02-10T02:44:57;101411.19;;;-4.79;100.00
5595;BME280;1003;48.002;7.788;2023-02-10T02:47:54;101409.47;;;-4.80;100.00
5595;BME280;1003;48.002;7.788;2023-02-10T02:50:30;101399.41;;;-5.02;100.00
5595;BME280;1003;48.002;7.788;2023-02-10T02:53:26;101390.03;;;-5.25;100.00
5595;BME280;1003;48.002;7.788;2023-02-10T02:56:06;101395.25;;;-5.31;100.00
5595;BME280;1003;48.002;7.788;2023-02-10T02:58:46;101397.72;;;-5.31;100.00
5595;BME280;1003;48.002;7.788;2023-02-10T03:01:24;101424.38;;;-5.06;100.00
5595;BME280;1003;48.002;7.788;2023-02-10T03:03:55;101426.06;;;-5.24;100.00
5595;BME280;1003;48.002;7.788;2023-02-10T03:06:24;101420.94;;;-5.36;100.00
5595;BME280;1003;48.002;7.788;2023-02-10T03:08:51;101408.47;;;-5.47;100.00
5595;BME280;1003;48.002;7.788;2023-02-10T03:11:19;101419.06;;;-5.38;100.00
5595;BME280;1003;48.002;7.788;2023-02-10T03:13:46;101442.03;;;-5.19;100.00
5595;BME280;1003;48.002;7.788;2023-02-10T03:16:13;101458.94;;;-4.94;100.00
5595;BME280;1003;48.002;7.788;2023-02-10T03:18:40;101462.56;;;-4.99;100.00
5595;BME280;1003;48.002;7.788;2023-02-10T03:21:08;101461.94;;;-5.16;100.00
5595;BME280;1003;48.002;7.788;2023-02-10T03:23:35;101480.22;;;-5.12;100.00
5595;BME280;1003;48.002;7.788;2023-02-10T03:26:03;101476.97;;;-5.21;100.00
5595;BME280;1003;48.002;7.788;2023-02-10T03:28:30;101470.13;;;-5.43;100.00
5595;BME280;1003;48.002;7.788;2023-02-10T03:30:57;101445.69;;;-5.60;100.00
5595;BME280;1003;48.002;7.788;2023-02-10T03:33:27;101448.00;;;-5.62;100.00
5595;BME280;1003;48.002;7.788;2023-02-10T03:35:54;101471.75;;;-5.52;100.00
5595;BME280;1003;48.002;7.788;2023-02-10T03:38:25;101477.63;;;-5.50;100.00
5595;BME280;1003;48.002;7.788;2023-02-10T03:40:53;101490.22;;;-5.28;100.00
5595;BME280;1003;48.002;7.788;2023-02-10T03:43:21;101491.72;;;-5.39;100.00
5595;BME280;1003;48.002;7.788;2023-02-10T03:45:49;101497.59;;;-5.28;100.00
5595;BME280;1003;48.002;7.788;2023-02-10T03:48:16;101505.56;;;-5.39;100.00
5595;BME280;1003;48.002;7.788;2023-02-10T03:50:43;101504.13;;;-5.37;100.00
5595;BME280;1003;48.002;7.788;2023-02-10T03:53:11;101506.91;;;-5.51;100.00
5595;BME280;1003;48.002;7.788;2023-02-10T03:55:39;101508.38;;;-5.71;100.00
5595;BME280;1003;48.002;7.788;2023-02-10T03:58:06;101506.69;;;-5.81;100.00
5595;BME280;1003;48.002;7.788;2023-02-10T04:00:33;101516.03;;;-5.76;100.00
5595;BME280;1003;48.002;7.788;2023-02-10T04:03:01;101535.88;;;-5.56;100.00
5595;BME280;1003;48.002;7.788;2023-02-10T04:05:28;101534.84;;;-5.49;100.00
5595;BME280;1003;48.002;7.788;2023-02-10T04:07:55;101538.81;;;-5.24;100.00
5595;BME280;1003;48.002;7.788;2023-02-10T04:10:22;101551.28;;;-5.04;100.00
5595;BME280;1003;48.002;7.788;2023-02-10T04:12:50;101554.06;;;-4.82;100.00
5595;BME280;1003;48.002;7.788;2023-02-10T04:15:17;101555.88;;;-4.98;100.00
5595;BME280;1003;48.002;7.788;2023-02-10T04:17:45;101554.50;;;-5.13;100.00
5595;BME280;1003;48.002;7.788;2023-02-10T04:20:13;101546.81;;;-5.08;100.00
5595;BME280;1003;48.002;7.788;2023-02-10T04:22:40;101555.28;;;-4.95;100.00
5595;BME280;1003;48.002;7.788;2023-02-10T04:25:08;101549.34;;;-4.89;100.00
5595;BME280;1003;48.002;7.788;2023-02-10T04:27:36;101549.47;;;-4.87;100.00
5595;BME280;1003;48.002;7.788;2023-02-10T04:30:06;101547.38;;;-4.74;100.00
5595;BME280;1003;48.002;7.788;2023-02-10T04:32:33;101547.22;;;-4.67;100.00
5595;BME280;1003;48.002;7.788;2023-02-10T04:35:00;101556.22;;;-4.76;100.00
5595;BME280;1003;48.002;7.788;2023-02-10T04:37:27;101560.25;;;-4.77;100.00
5595;BME280;1003;48.002;7.788;2023-02-10T04:39:55;101568.19;;;-4.79;100.00
5595;BME280;1003;48.002;7.788;2023-02-10T04:42:22;101570.78;;;-4.78;100.00
5595;BME280;1003;48.002;7.788;2023-02-10T04:44:55;101578.28;;;-4.76;100.00
5595;BME280;1003;48.002;7.788;2023-02-10T04:47:24;101585.94;;;-4.73;100.00
5595;BME280;1003;48.002;7.788;2023-02-10T04:49:52;101580.75;;;-4.76;100.00
5595;BME280;1003;48.002;7.788;2023-02-10T04:52:19;101582.13;;;-4.69;100.00
5595;BME280;1003;48.002;7.788;2023-02-10T04:54:46;101593.22;;;-4.64;100.00
5595;BME280;1003;48.002;7.788;2023-02-10T04:57:13;101591.19;;;-4.60;100.00
5595;BME280;1003;48.002;7.788;2023-02-10T04:59:40;101578.91;;;-4.60;100.00
5595;BME280;1003;48.002;7.788;2023-02-10T05:02:07;101595.19;;;-4.52;100.00
5595;BME280;1003;48.002;7.788;2023-02-10T05:04:36;101593.41;;;-4.44;100.00
5595;BME280;1003;48.002;7.788;2023-02-10T05:07:03;101589.16;;;-4.55;100.00
5595;BME280;1003;48.002;7.788;2023-02-10T05:09:30;101585.00;;;-4.65;100.00
5595;BME280;1003;48.002;7.788;2023-02-10T05:11:57;101582.66;;;-4.82;100.00
5595;BME280;1003;48.002;7.788;2023-02-10T05:14:25;101579.81;;;-4.95;100.00
5595;BME280;1003;48.002;7.788;2023-02-10T05:16:52;101584.00;;;-4.94;100.00
5595;BME280;1003;48.002;7.788;2023-02-10T05:19:19;101586.28;;;-4.96;100.00
5595;BME280;1003;48.002;7.788;2023-02-10T05:21:47;101580.41;;;-5.07;100.00
5595;BME280;1003;48.002;7.788;2023-02-10T05:24:14;101580.16;;;-5.10;100.00
5595;BME280;1003;48.002;7.788;2023-02-10T05:26:42;101587.34;;;-5.03;100.00
5595;BME280;1003;48.002;7.788;2023-02-10T05:29:09;101586.28;;;-4.96;100.00
5595;BME280;1003;48.002;7.788;2023-02-10T05:31:36;101592.00;;;-4.78;100.00
5595;BME280;1003;48.002;7.788;2023-02-10T05:34:03;101597.88;;;-4.67;100.00
5595;BME280;1003;48.002;7.788;2023-02-10T05:36:30;101600.69;;;-4.54;100.00
5595;BME280;1003;48.002;7.788;2023-02-10T05:38:58;101589.66;;;-4.68;100.00
5595;BME280;1003;48.002;7.788;2023-02-10T05:41:43;101621.03;;;-4.46;100.00
5595;BME280;1003;48.002;7.788;2023-02-10T05:44:10;101619.25;;;-4.47;100.00
5595;BME280;1003;48.002;7.788;2023-02-10T05:46:37;101625.44;;;-4.42;100.00
5595;BME280;1003;48.002;7.788;2023-02-10T05:49:05;101620.84;;;-4.48;100.00
5595;BME280;1003;48.002;7.788;2023-02-10T05:51:32;101601.66;;;-4.80;100.00
5595;BME280;1003;48.002;7.788;2023-02-10T05:54:00;101589.78;;;-5.03;100.00
5595;BME280;1003;48.002;7.788;2023-02-10T05:56:27;101596.03;;;-5.15;100.00
5595;BME280;1003;48.002;7.788;2023-02-10T05:58:55;101580.91;;;-5.28;100.00
5595;BME280;1003;48.002;7.788;2023-02-10T06:01:22;101579.06;;;-5.31;100.00
5595;BME280;1003;48.002;7.788;2023-02-10T06:03:49;101578.25;;;-5.57;100.00
5595;BME280;1003;48.002;7.788;2023-02-10T06:06:16;101574.81;;;-5.68;100.00
5595;BME280;1003;48.002;7.788;2023-02-10T06:08:44;101577.97;;;-5.69;100.00
5595;BME280;1003;48.002;7.788;2023-02-10T06:11:12;101587.06;;;-5.68;100.00
5595;BME280;1003;48.002;7.788;2023-02-10T06:13:39;101592.97;;;-5.74;100.00
5595;BME280;1003;48.002;7.788;2023-02-10T06:16:08;101595.41;;;-5.83;100.00
5595;BME280;1003;48.002;7.788;2023-02-10T06:18:37;101590.81;;;-5.89;100.00
5595;BME280;1003;48.002;7.788;2023-02-10T06:21:05;101606.78;;;-5.84;100.00
5595;BME280;1003;48.002;7.788;2023-02-10T06:23:32;101605.97;;;-6.01;100.00
5595;BME280;1003;48.002;7.788;2023-02-10T06:25:59;101602.50;;;-6.12;100.00
5595;BME280;1003;48.002;7.788;2023-02-10T06:28:28;101614.88;;;-6.11;100.00
5595;BME280;1003;48.002;7.788;2023-02-10T06:30:55;101623.38;;;-6.07;100.00
5595;BME280;1003;48.002;7.788;2023-02-10T06:33:22;101638.91;;;-6.15;100.00
5595;BME280;1003;48.002;7.788;2023-02-10T06:35:49;101637.16;;;-6.25;100.00
5595;BME280;1003;48.002;7.788;2023-02-10T06:38:17;101631.84;;;-6.29;100.00
5595;BME280;1003;48.002;7.788;2023-02-10T06:40:44;101633.00;;;-6.26;100.00
5595;BME280;1003;48.002;7.788;2023-02-10T06:43:11;101645.81;;;-6.20;100.00
5595;BME280;1003;48.002;7.788;2023-02-10T06:45:40;101654.75;;;-6.03;100.00
5595;BME280;1003;48.002;7.788;2023-02-10T06:48:07;101667.44;;;-5.98;100.00
5595;BME280;1003;48.002;7.788;2023-02-10T06:50:34;101678.41;;;-5.86;100.00
5595;BME280;1003;48.002;7.788;2023-02-10T06:53:01;101669.59;;;-5.84;100.00
5595;BME280;1003;48.002;7.788;2023-02-10T06:55:28;101676.22;;;-5.83;100.00
5595;BME280;1003;48.002;7.788;2023-02-10T06:57:58;101686.75;;;-5.67;100.00
5595;BME280;1003;48.002;7.788;2023-02-10T07:00:25;101697.56;;;-5.56;100.00
5595;BME280;1003;48.002;7.788;2023-02-10T07:02:54;101700.16;;;-5.63;100.00
5595;BME280;1003;48.002;7.788;2023-02-10T07:05:21;101699.13;;;-5.65;100.00
5595;BME280;1003;48.002;7.788;2023-02-10T07:07:48;101710.81;;;-5.71;100.00
5595;BME280;1003;48.002;7.788;2023-02-10T07:10:17;101716.16;;;-5.67;100.00
5595;BME280;1003;48.002;7.788;2023-02-10T07:12:44;101723.34;;;-5.60;100.00
5595;BME280;1003;48.002;7.788;2023-02-10T07:15:13;101724.97;;;-5.51;100.00
5595;BME280;1003;48.002;7.788;2023-02-10T07:17:43;101731.88;;;-5.30;100.00
5595;BME280;1003;48.002;7.788;2023-02-10T07:20:13;101749.91;;;-5.04;100.00
5595;BME280;1003;48.002;7.788;2023-02-10T07:22:40;101744.56;;;-4.99;100.00
5595;BME280;1003;48.002;7.788;2023-02-10T07:25:08;101738.81;;;-5.00;100.00
5595;BME280;1003;48.002;7.788;2023-02-10T07:27:36;101743.81;;;-4.90;100.00
5595;BME280;1003;48.002;7.788;2023-02-10T07:30:04;101760.41;;;-4.79;100.00
5595;BME280;1003;48.002;7.788;2023-02-10T07:32:32;101766.00;;;-4.71;100.00
5595;BME280;1003;48.002;7.788;2023-02-10T07:34:59;101775.66;;;-4.64;100.00
5595;BME280;1003;48.002;7.788;2023-02-10T07:37:27;101776.38;;;-4.65;100.00
5595;BME280;1003;48.002;7.788;2023-02-10T07:39:55;101763.25;;;-4.65;100.00
5595;BME280;1003;48.002;7.788;2023-02-10T07:42:22;101775.47;;;-4.48;100.00
5595;BME280;1003;48.002;7.788;2023-02-10T07:44:49;101772.25;;;-4.30;100.00
5595;BME280;1003;48.002;7.788;2023-02-10T07:47:16;101779.13;;;-4.17;100.00
5595;BME280;1003;48.002;7.788;2023-02-10T07:49:43;101785.31;;;-4.03;100.00
5595;BME280;1003;48.002;7.788;2023-02-10T07:52:10;101784.69;;;-3.92;100.00
5595;BME280;1003;48.002;7.788;2023-02-10T07:54:39;101793.13;;;-3.80;100.00
5595;BME280;1003;48.002;7.788;2023-02-10T07:57:07;101793.09;;;-3.71;100.00
5595;BME280;1003;48.002;7.788;2023-02-10T07:59:34;101805.44;;;-3.61;100.00
5595;BME280;1003;48.002;7.788;2023-02-10T08:02:01;101802.13;;;-3.61;100.00
5595;BME280;1003;48.002;7.788;2023-02-10T08:04:30;101806.56;;;-3.49;100.00
5595;BME280;1003;48.002;7.788;2023-02-10T08:07:02;101809.78;;;-3.39;100.00
5595;BME280;1003;48.002;7.788;2023-02-10T08:09:29;101819.06;;;-3.18;100.00
5595;BME280;1003;48.002;7.788;2023-02-10T08:11:58;101813.63;;;-3.05;100.00
5595;BME280;1003;48.002;7.788;2023-02-10T08:14:25;101812.47;;;-3.09;100.00
5595;BME280;1003;48.002;7.788;2023-02-10T08:16:53;101816.31;;;-3.02;100.00
5595;BME280;1003;48.002;7.788;2023-02-10T08:19:21;101816.91;;;-2.86;100.00
5595;BME280;1003;48.002;7.788;2023-02-10T08:21:51;101815.03;;;-2.70;100.00
5595;BME280;1003;48.002;7.788;2023-02-10T08:24:18;101824.59;;;-2.54;100.00
5595;BME280;1003;48.002;7.788;2023-02-10T08:26:45;101829.56;;;-2.44;100.00
5595;BME280;1003;48.002;7.788;2023-02-10T08:29:14;101827.91;;;-2.53;100.00
5595;BME280;1003;48.002;7.788;2023-02-10T08:31:41;101836.47;;;-2.40;100.00
5595;BME280;1003;48.002;7.788;2023-02-10T08:34:15;101832.94;;;-2.33;100.00
5595;BME280;1003;48.002;7.788;2023-02-10T08:36:42;101834.09;;;-2.19;100.00
5595;BME280;1003;48.002;7.788;2023-02-10T08:39:09;101834.72;;;-2.12;100.00
5595;BME280;1003;48.002;7.788;2023-02-10T08:41:37;101837.59;;;-1.97;100.00
5595;BME280;1003;48.002;7.788;2023-02-10T08:44:05;101841.44;;;-1.90;100.00
5595;BME280;1003;48.002;7.788;2023-02-10T08:46:34;101839.34;;;-1.86;100.00
5595;BME280;1003;48.002;7.788;2023-02-10T08:49:01;101852.28;;;-1.78;100.00
5595;BME280;1003;48.002;7.788;2023-02-10T08:51:29;101855.41;;;-1.60;100.00
5595;BME280;1003;48.002;7.788;2023-02-10T08:54:00;101860.22;;;-1.51;100.00
5595;BME280;1003;48.002;7.788;2023-02-10T08:56:27;101861.34;;;-1.38;100.00
5595;BME280;1003;48.002;7.788;2023-02-10T08:58:55;101867.38;;;-1.24;100.00
5595;BME280;1003;48.002;7.788;2023-02-10T09:01:24;101866.41;;;-1.06;100.00
5595;BME280;1003;48.002;7.788;2023-02-10T09:03:54;101855.25;;;-0.80;100.00
5595;BME280;1003;48.002;7.788;2023-02-10T09:06:26;101865.34;;;-0.67;100.00
5595;BME280;1003;48.002;7.788;2023-02-10T09:08:54;101864.00;;;-0.63;100.00
5595;BME280;1003;48.002;7.788;2023-02-10T09:11:22;101868.59;;;-0.36;100.00
5595;BME280;1003;48.002;7.788;2023-02-10T09:13:50;101864.28;;;-0.16;100.00
5595;BME280;1003;48.002;7.788;2023-02-10T09:16:17;101850.25;;;-0.28;100.00
5595;BME280;1003;48.002;7.788;2023-02-10T09:18:44;101837.00;;;-0.18;100.00
5595;BME280;1003;48.002;7.788;2023-02-10T09:21:13;101830.22;;;-0.20;100.00
5595;BME280;1003;48.002;7.788;2023-02-10T09:23:40;101825.84;;;-0.13;100.00
5595;BME280;1003;48.002;7.788;2023-02-10T09:26:07;101823.84;;;-0.07;100.00
5595;BME280;1003;48.002;7.788;2023-02-10T09:28:35;101813.53;;;-0.01;100.00
5595;BME280;1003;48.002;7.788;2023-02-10T09:31:05;101813.88;;;0.25;100.00
5595;BME280;1003;48.002;7.788;2023-02-10T09:33:33;101818.16;;;0.50;100.00
5595;BME280;1003;48.002;7.788;2023-02-10T09:36:02;101804.69;;;0.58;100.00
5595;BME280;1003;48.002;7.788;2023-02-10T09:38:30;101792.31;;;0.58;100.00
5595;BME280;1003;48.002;7.788;2023-02-10T09:41:12;101781.66;;;0.59;100.00
5595;BME280;1003;48.002;7.788;2023-02-10T09:44:04;101771.47;;;0.78;100.00
5595;BME280;1003;48.002;7.788;2023-02-10T09:46:57;101780.09;;;1.07;100.00
5595;BME280;1003;48.002;7.788;2023-02-10T09:49:48;101757.59;;;1.03;100.00
5595;BME280;1003;48.002;7.788;2023-02-10T09:52:32;101766.19;;;1.20;100.00
5595;BME280;1003;48.002;7.788;2023-02-10T09:55:13;101751.97;;;1.29;100.00
5595;BME280;1003;48.002;7.788;2023-02-10T09:57:45;101738.16;;;1.33;100.00
5595;BME280;1003;48.002;7.788;2023-02-10T10:00:28;101731.72;;;1.60;100.00
5595;BME280;1003;48.002;7.788;2023-02-10T10:02:57;101724.38;;;1.73;100.00
5595;BME280;1003;48.002;7.788;2023-02-10T10:05:39;101708.66;;;1.61;100.00
5595;BME280;1003;48.002;7.788;2023-02-10T10:08:21;101691.31;;;1.61;100.00
5595;BME280;1003;48.002;7.788;2023-02-10T10:10:51;101681.91;;;1.69;100.00
5595;BME280;1003;48.002;7.788;2023-02-10T10:13:27;101675.31;;;1.94;100.00
5595;BME280;1003;48.002;7.788;2023-02-10T10:16:19;101663.03;;;2.09;100.00
5595;BME280;1003;48.002;7.788;2023-02-10T10:19:05;101648.72;;;2.05;100.00
5595;BME280;1003;48.002;7.788;2023-02-10T10:21:46;101622.97;;;2.16;100.00
5595;BME280;1003;48.002;7.788;2023-02-10T10:24:37;101601.38;;;2.15;100.00
5595;BME280;1003;48.002;7.788;2023-02-10T10:27:25;101575.84;;;2.16;100.00
5595;BME280;1003;48.002;7.788;2023-02-10T10:30:06;101550.66;;;2.10;100.00
5595;BME280;1003;48.002;7.788;2023-02-10T10:32:43;101533.25;;;2.36;100.00
5595;BME280;1003;48.002;7.788;2023-02-10T10:35:16;101513.00;;;2.44;100.00
5595;BME280;1003;48.002;7.788;2023-02-10T10:37:44;101479.88;;;2.43;100.00
5595;BME280;1003;48.002;7.788;2023-02-10T10:40:19;101460.25;;;2.61;100.00
5595;BME280;1003;48.002;7.788;2023-02-10T10:42:53;101432.03;;;2.88;100.00
5595;BME280;1003;48.002;7.788;2023-02-10T10:45:30;101408.56;;;2.83;100.00
5595;BME280;1003;48.002;7.788;2023-02-10T10:48:07;101397.03;;;3.13;100.00
5595;BME280;1003;48.002;7.788;2023-02-10T10:50:35;101358.22;;;2.86;100.00
5595;BME280;1003;48.002;7.788;2023-02-10T10:53:14;101327.84;;;2.75;100.00
5595;BME280;1003;48.002;7.788;2023-02-10T10:55:46;101299.59;;;2.58;100.00
5595;BME280;1003;48.002;7.788;2023-02-10T10:58:25;101284.53;;;3.01;100.00
5595;BME280;1003;48.002;7.788;2023-02-10T11:00:57;101260.66;;;2.88;100.00
5595;BME280;1003;48.002;7.788;2023-02-10T11:03:24;101226.50;;;2.84;100.00
5595;BME280;1003;48.002;7.788;2023-02-10T11:06:03;101208.16;;;2.97;100.00
5595;BME280;1003;48.002;7.788;2023-02-10T11:08:37;101183.78;;;3.06;100.00
5595;BME280;1003;48.002;7.788;2023-02-10T11:11:10;101171.00;;;3.31;100.00
5595;BME280;1003;48.002;7.788;2023-02-10T11:13:50;101137.59;;;2.94;100.00
5595;BME280;1003;48.002;7.788;2023-02-10T11:16:21;101131.72;;;3.24;100.00
5595;BME280;1003;48.002;7.788;2023-02-10T11:18:54;101125.94;;;3.58;100.00
5595;BME280;1003;48.002;7.788;2023-02-10T11:21:33;101101.22;;;3.77;100.00
5595;BME280;1003;48.002;7.788;2023-02-10T11:24:02;101075.44;;;3.93;100.00
5595;BME280;1003;48.002;7.788;2023-02-10T11:26:29;101048.56;;;4.04;100.00
5595;BME280;1003;48.002;7.788;2023-02-10T11:29:09;101034.19;;;4.16;100.00
5595;BME280;1003;48.002;7.788;2023-02-10T11:31:37;101018.63;;;4.20;100.00
5595;BME280;1003;48.002;7.788;2023-02-10T11:34:20;100983.31;;;3.56;100.00
5595;BME280;1003;48.002;7.788;2023-02-10T11:36:49;100998.38;;;3.59;100.00
5595;BME280;1003;48.002;7.788;2023-02-10T11:39:23;100988.63;;;3.63;100.00
5595;BME280;1003;48.002;7.788;2023-02-10T11:41:52;100978.41;;;3.75;100.00
5595;BME280;1003;48.002;7.788;2023-02-10T11:44:28;100967.34;;;3.51;100.00
5595;BME280;1003;48.002;7.788;2023-02-10T11:47:00;100965.06;;;3.73;100.00
5595;BME280;1003;48.002;7.788;2023-02-10T11:49:29;100965.72;;;4.06;100.00
5595;BME280;1003;48.002;7.788;2023-02-10T11:52:01;100950.84;;;4.08;100.00
5595;BME280;1003;48.002;7.788;2023-02-10T11:54:29;100951.53;;;4.23;100.00
5595;BME280;1003;48.002;7.788;2023-02-10T11:57:16;100951.22;;;4.35;100.00
5595;BME280;1003;48.002;7.788;2023-02-10T12:00:16;100935.00;;;4.43;100.00
5595;BME280;1003;48.002;7.788;2023-02-10T12:03:41;100929.50;;;4.31;100.00
5595;BME280;1003;48.002;7.788;2023-02-10T12:06:18;100937.41;;;4.61;100.00
5595;BME280;1003;48.002;7.788;2023-02-10T12:08:57;100931.31;;;4.54;100.00
5595;BME280;1003;48.002;7.788;2023-02-10T12:11:35;100922.50;;;4.41;100.00
5595;BME280;1003;48.002;7.788;2023-02-10T12:14:25;100917.22;;;4.35;100.00
5595;BME280;1003;48.002;7.788;2023-02-10T12:17:20;100916.41;;;4.75;100.00
5595;BME280;1003;48.002;7.788;2023-02-10T12:20:06;100922.34;;;4.58;100.00
5595;BME280;1003;48.002;7.788;2023-02-10T12:23:05;100924.16;;;4.81;100.00
5595;BME280;1003;48.002;7.788;2023-02-10T12:25:45;100930.56;;;4.95;100.00
5595;BME280;1003;48.002;7.788;2023-02-10T12:28:28;100927.28;;;4.77;100.00
5595;BME280;1003;48.002;7.788;2023-02-10T12:31:07;100930.19;;;4.67;100.00
5595;BME280;1003;48.002;7.788;2023-02-10T12:33:50;100931.38;;;4.56;100.00
5595;BME280;1003;48.002;7.788;2023-02-10T12:36:34;100930.72;;;4.60;100.00
5595;BME280;1003;48.002;7.788;2023-02-10T12:39:14;100935.00;;;4.83;100.00
5595;BME280;1003;48.002;7.788;2023-02-10T12:41:54;100939.97;;;5.03;100.00
5595;BME280;1003;48.002;7.788;2023-02-10T12:44:41;100940.56;;;4.97;100.00
5595;BME280;1003;48.002;7.788;2023-02-10T12:47:28;100947.13;;;5.16;100.00
5595;BME280;1003;48.002;7.788;2023-02-10T12:50:25;100944.97;;;5.23;100.00
5595;BME280;1003;48.002;7.788;2023-02-10T12:52:59;100946.38;;;5.17;100.00
5595;BME280;1003;48.002;7.788;2023-02-10T12:55:42;100940.53;;;4.95;100.00
5595;BME280;1003;48.002;7.788;2023-02-10T12:58:16;100942.53;;;5.25;100.00
5595;BME280;1003;48.002;7.788;2023-02-10T13:00:51;100931.03;;;5.49;100.00
5595;BME280;1003;48.002;7.788;2023-02-10T13:03:26;100933.81;;;5.36;100.00
5595;BME280;1003;48.002;7.788;2023-02-10T13:06:05;100933.09;;;5.60;100.00
5595;BME280;1003;48.002;7.788;2023-02-10T13:08:47;100936.09;;;5.73;100.00
5595;BME280;1003;48.002;7.788;2023-02-10T13:11:21;100933.56;;;5.72;100.00
5595;BME280;1003;48.002;7.788;2023-02-10T13:13:52;100929.06;;;5.86;100.00
5595;BME280;1003;48.002;7.788;2023-02-10T13:16:25;100927.63;;;5.70;100.00
5595;BME280;1003;48.002;7.788;2023-02-10T13:19:02;100922.19;;;5.58;100.00
5595;BME280;1003;48.002;7.788;2023-02-10T13:21:40;100925.22;;;5.71;100.00
5595;BME280;1003;48.002;7.788;2023-02-10T13:24:18;100921.78;;;5.69;100.00
5595;BME280;1003;48.002;7.788;2023-02-10T13:27:10;100926.34;;;5.79;100.00
5595;BME280;1003;48.002;7.788;2023-02-10T13:29:47;100912.44;;;5.86;100.00
5595;BME280;1003;48.002;7.788;2023-02-10T13:32:37;100912.00;;;5.96;100.00